Terminal Aerodrome Forecast
Issued by NWS Louisville, KY

Home | Current Version | Previous Version | Graphics & Text | Print | Product List | Glossary On
Versions: 1 2 3 4 5 6 7 8 9 10 11 12 13 14 15
000
FTUS43 KLMK 020500
TAFSDF
TAF
KSDF 020520Z 0206/0312 13004KT P6SM SCT250
     FM021500 17008KT P6SM SCT050
     FM030800 19010KT 6SM -SHRA OVC040=

USA.gov is the U.S. government's official web portal to all federal, state and local government web resources and services.